createdAt,value
2023-01-25T00:00:51.377Z,103422.06
2023-01-25T00:03:17.997Z,103417.84
2023-01-25T00:05:44.332Z,103407.75
2023-01-25T00:08:12.267Z,103406.47
2023-01-25T00:10:38.751Z,103400.13
2023-01-25T00:13:05.127Z,103405.69
2023-01-25T00:15:31.471Z,103409.47
2023-01-25T00:17:57.788Z,103407.84
2023-01-25T00:20:24.334Z,103407.59
2023-01-25T00:22:52.132Z,103406.63
2023-01-25T00:25:18.804Z,103406.81
2023-01-25T00:27:45.460Z,103405.47
2023-01-25T00:30:12.043Z,103409.72
2023-01-25T00:32:47.181Z,103414.22
2023-01-25T00:35:13.900Z,103404.44
2023-01-25T00:37:42.870Z,103410.06
2023-01-25T00:40:10.630Z,103400.41
2023-01-25T00:42:37.334Z,103401.88
2023-01-25T00:45:04.094Z,103389.78
2023-01-25T00:47:30.529Z,103386.31
2023-01-25T00:49:56.818Z,103384.00
2023-01-25T00:52:23.178Z,103388.19
2023-01-25T00:54:49.941Z,103378.50
2023-01-25T00:57:16.369Z,103372.28
2023-01-25T00:59:44.619Z,103365.97
2023-01-25T01:02:12.107Z,103364.03
2023-01-25T01:04:38.936Z,103361.13
2023-01-25T01:07:05.321Z,103364.81
2023-01-25T01:09:32.342Z,103367.59
2023-01-25T01:11:59.054Z,103365.66
2023-01-25T01:14:25.557Z,103365.66
2023-01-25T01:16:52.636Z,103362.19
2023-01-25T01:19:19.415Z,103357.09
2023-01-25T01:21:45.847Z,103356.63
2023-01-25T01:24:12.319Z,103348.38
2023-01-25T01:26:38.911Z,103356.34
2023-01-25T01:29:05.708Z,103354.47
2023-01-25T01:31:32.291Z,103354.16
2023-01-25T01:33:58.864Z,103357.09
2023-01-25T01:36:26.723Z,103356.63
2023-01-25T01:38:53.292Z,103352.72
2023-01-25T01:41:19.912Z,103345.22
2023-01-25T01:43:46.745Z,103344.41
2023-01-25T01:46:45.593Z,103347.91
2023-01-25T01:49:26.515Z,103355.91
2023-01-25T01:51:56.820Z,103349.22
2023-01-25T01:54:24.138Z,103343.88
2023-01-25T01:57:10.865Z,103341.25
2023-01-25T01:59:40.239Z,103342.78
2023-01-25T02:02:06.850Z,103340.16
2023-01-25T02:04:33.571Z,103334.69
2023-01-25T02:07:03.407Z,103332.94
2023-01-25T02:09:32.161Z,103339.97
2023-01-25T02:11:59.846Z,103329.38
2023-01-25T02:14:27.862Z,103331.81
2023-01-25T02:16:54.219Z,103328.88
2023-01-25T02:19:40.778Z,103327.50
2023-01-25T02:22:10.335Z,103337.59
2023-01-25T02:24:37.671Z,103330.78
2023-01-25T02:27:04.337Z,103334.25
2023-01-25T02:29:31.058Z,103322.63
2023-01-25T02:32:03.620Z,103324.41
2023-01-25T02:34:30.130Z,103319.44
2023-01-25T02:36:56.851Z,103327.75
2023-01-25T02:39:26.472Z,103313.66
2023-01-25T02:41:53.151Z,103318.47
2023-01-25T02:44:27.343Z,103313.56
2023-01-25T02:46:54.018Z,103312.22
2023-01-25T02:49:21.854Z,103306.78
2023-01-25T02:51:49.995Z,103300.22
2023-01-25T02:54:17.889Z,103296.53
2023-01-25T02:56:44.435Z,103304.03
2023-01-25T02:59:13.119Z,103309.81
2023-01-25T03:01:40.810Z,103311.53
2023-01-25T03:04:07.615Z,103303.31
2023-01-25T03:06:35.068Z,103303.41
2023-01-25T03:09:01.940Z,103296.53
2023-01-25T03:11:28.406Z,103289.47
2023-01-25T03:13:55.167Z,103285.97
2023-01-25T03:16:21.939Z,103271.47
2023-01-25T03:18:48.563Z,103279.41
2023-01-25T03:21:16.580Z,103276.88
2023-01-25T03:23:43.536Z,103264.69
2023-01-25T03:26:14.361Z,103259.56
2023-01-25T03:28:41.391Z,103270.25
2023-01-25T03:31:08.890Z,103257.22
2023-01-25T03:33:35.614Z,103256.53
2023-01-25T03:36:02.440Z,103266.97
2023-01-25T03:38:29.297Z,103264.38
2023-01-25T03:40:55.965Z,103258.03
2023-01-25T03:43:22.500Z,103248.81
2023-01-25T03:45:53.511Z,103245.16
2023-01-25T03:48:20.248Z,103250.69
2023-01-25T03:50:50.819Z,103250.34
2023-01-25T03:53:29.740Z,103249.81
2023-01-25T03:55:57.718Z,103243.91
2023-01-25T03:58:24.337Z,103243.78
2023-01-25T04:00:51.020Z,103242.81
2023-01-25T04:03:19.559Z,103240.78
2023-01-25T04:05:46.580Z,103235.78
2023-01-25T04:08:13.440Z,103231.72
2023-01-25T04:10:40.114Z,103235.88
2023-01-25T04:13:06.590Z,103234.09
2023-01-25T04:15:33.008Z,103227.50
2023-01-25T04:17:59.545Z,103225.13
2023-01-25T04:20:25.997Z,103231.75
2023-01-25T04:22:52.666Z,103230.69
2023-01-25T04:25:20.366Z,103226.41
2023-01-25T04:27:47.006Z,103236.09
2023-01-25T04:30:13.609Z,103228.50
2023-01-25T04:32:41.521Z,103223.06
2023-01-25T04:35:08.719Z,103219.91
2023-01-25T04:37:35.491Z,103215.28
2023-01-25T04:40:02.302Z,103205.16
2023-01-25T04:42:30.095Z,103202.75
2023-01-25T04:44:56.552Z,103203.13
2023-01-25T04:47:23.028Z,103199.78
2023-01-25T04:49:49.580Z,103199.09
2023-01-25T04:52:16.009Z,103190.94
2023-01-25T04:54:42.463Z,103196.75
2023-01-25T04:57:09.229Z,103196.63
2023-01-25T04:59:35.996Z,103195.19
2023-01-25T05:02:02.503Z,103183.72
2023-01-25T05:04:29.002Z,103189.44
2023-01-25T05:06:55.625Z,103190.16
2023-01-25T05:09:22.432Z,103180.41
2023-01-25T05:11:48.904Z,103180.59
2023-01-25T05:14:15.459Z,103180.44
2023-01-25T05:16:43.109Z,103169.03
2023-01-25T05:19:10.569Z,103174.22
2023-01-25T05:21:55.754Z,103175.56
2023-01-25T05:24:22.425Z,103170.13
2023-01-25T05:27:01.431Z,103175.13
2023-01-25T05:29:28.589Z,103177.28
2023-01-25T05:31:55.088Z,103174.22
2023-01-25T05:34:21.820Z,103168.91
2023-01-25T05:36:48.292Z,103165.94
2023-01-25T05:39:15.079Z,103162.53
2023-01-25T05:41:41.780Z,103158.50
2023-01-25T05:44:08.125Z,103156.13
2023-01-25T05:46:35.938Z,103152.16
2023-01-25T05:49:02.568Z,103150.41
2023-01-25T05:51:29.319Z,103150.16
2023-01-25T05:53:56.642Z,103148.41
2023-01-25T05:56:23.259Z,103143.56
2023-01-25T05:58:56.304Z,103141.84
2023-01-25T06:01:23.110Z,103146.69
2023-01-25T06:03:49.892Z,103147.59
2023-01-25T06:06:16.996Z,103139.25
2023-01-25T06:08:43.633Z,103138.59
2023-01-25T06:11:11.623Z,103143.16
2023-01-25T06:13:39.038Z,103146.81
2023-01-25T06:16:06.184Z,103140.00
2023-01-25T06:18:34.028Z,103132.34
2023-01-25T06:21:00.739Z,103141.75
2023-01-25T06:23:27.702Z,103139.56
2023-01-25T06:25:58.207Z,103145.44
2023-01-25T06:28:24.758Z,103147.47
2023-01-25T06:30:51.171Z,103145.38
2023-01-25T06:33:17.706Z,103143.38
2023-01-25T06:35:44.778Z,103141.41
2023-01-25T06:38:11.233Z,103145.06
2023-01-25T06:40:37.768Z,103148.34
2023-01-25T06:43:07.812Z,103146.31
2023-01-25T06:45:34.299Z,103146.16
2023-01-25T06:48:01.017Z,103145.91
2023-01-25T06:50:27.392Z,103152.75
2023-01-25T06:52:54.611Z,103149.41
2023-01-25T06:55:21.556Z,103150.25
2023-01-25T06:57:48.160Z,103144.56
2023-01-25T07:00:18.478Z,103138.00
2023-01-25T07:02:45.190Z,103139.59
2023-01-25T07:05:11.883Z,103138.63
2023-01-25T07:07:38.833Z,103139.00
2023-01-25T07:10:05.606Z,103141.53
2023-01-25T07:12:32.271Z,103131.41
2023-01-25T07:14:59.060Z,103124.59
2023-01-25T07:17:25.636Z,103121.16
2023-01-25T07:19:52.270Z,103127.06
2023-01-25T07:22:18.764Z,103112.81
2023-01-25T07:24:49.912Z,103127.78
2023-01-25T07:27:17.056Z,103126.56
2023-01-25T07:29:43.682Z,103123.25
2023-01-25T07:32:12.142Z,103115.16
2023-01-25T07:34:38.902Z,103110.25
2023-01-25T07:37:05.699Z,103108.78
2023-01-25T07:39:32.079Z,103095.00
2023-01-25T07:41:58.485Z,103098.91
2023-01-25T07:44:24.917Z,103102.16
2023-01-25T07:46:53.207Z,103100.56
2023-01-25T07:49:19.956Z,103100.16
2023-01-25T07:51:46.330Z,103089.59
2023-01-25T07:54:13.277Z,103089.22
2023-01-25T07:56:40.958Z,103093.59
2023-01-25T07:59:10.278Z,103086.44
2023-01-25T08:01:37.356Z,103085.97
2023-01-25T08:04:04.880Z,103084.28
2023-01-25T08:06:35.626Z,103082.22
2023-01-25T08:09:07.110Z,103079.63
2023-01-25T08:11:34.811Z,103075.94
2023-01-25T08:14:03.201Z,103077.91
2023-01-25T08:16:30.773Z,103069.47
2023-01-25T08:18:58.737Z,103063.75
2023-01-25T08:21:29.353Z,103064.34
2023-01-25T08:23:56.964Z,103062.47
2023-01-25T08:26:24.139Z,103073.19
2023-01-25T08:28:53.778Z,103069.25
2023-01-25T08:31:23.221Z,103063.28
2023-01-25T08:33:50.008Z,103051.03
2023-01-25T08:36:18.340Z,103053.06
2023-01-25T08:38:45.494Z,103042.56
2023-01-25T08:41:14.236Z,103034.06
2023-01-25T08:43:40.813Z,103036.88
2023-01-25T08:46:07.983Z,103035.47
2023-01-25T08:48:34.707Z,103031.25
2023-01-25T08:51:01.644Z,103027.44
2023-01-25T08:53:32.206Z,103032.56
2023-01-25T08:56:09.348Z,103024.50
2023-01-25T08:58:38.215Z,103010.44
2023-01-25T09:01:08.916Z,102996.56
2023-01-25T09:03:36.723Z,103006.34
2023-01-25T09:06:03.433Z,103018.25
2023-01-25T09:08:30.719Z,103013.84
2023-01-25T09:11:01.080Z,103008.56
2023-01-25T09:13:27.728Z,103002.34
2023-01-25T09:15:59.292Z,102996.28
2023-01-25T09:18:25.823Z,102997.91
2023-01-25T09:20:52.833Z,103002.25
2023-01-25T09:23:22.890Z,102995.47
2023-01-25T09:25:55.854Z,102993.75
2023-01-25T09:28:22.389Z,102989.50
2023-01-25T09:31:14.574Z,103000.50
2023-01-25T09:33:42.800Z,102994.97
2023-01-25T09:36:09.960Z,102995.34
2023-01-25T09:38:36.512Z,103000.56
2023-01-25T09:41:21.729Z,102977.84
2023-01-25T09:44:14.254Z,102982.88
2023-01-25T09:47:01.788Z,102975.81
2023-01-25T09:49:46.945Z,102970.22
2023-01-25T09:52:22.248Z,102955.81
2023-01-25T09:54:48.699Z,102963.84
2023-01-25T09:57:22.520Z,102954.00
2023-01-25T09:59:50.781Z,102954.22
2023-01-25T10:02:25.699Z,102962.13
2023-01-25T10:04:54.630Z,102960.78
2023-01-25T10:07:44.295Z,102967.34
2023-01-25T10:10:23.183Z,102966.97
2023-01-25T10:12:49.603Z,102960.84
2023-01-25T10:15:19.203Z,102952.44
2023-01-25T10:17:46.477Z,102953.13
2023-01-25T10:20:33.801Z,102950.63
2023-01-25T10:23:15.646Z,102937.88
2023-01-25T10:25:41.920Z,102934.47
2023-01-25T10:28:14.460Z,102933.06
2023-01-25T10:30:46.333Z,102925.38
2023-01-25T10:33:14.917Z,102924.50
2023-01-25T10:35:47.042Z,102933.34
2023-01-25T10:38:34.383Z,102921.22
2023-01-25T10:41:09.775Z,102911.47
2023-01-25T10:43:36.358Z,102896.09
2023-01-25T10:46:02.823Z,102894.97
2023-01-25T10:48:33.013Z,102903.50
2023-01-25T10:50:59.542Z,102900.25
2023-01-25T10:53:26.509Z,102899.72
2023-01-25T10:55:59.906Z,102903.09
2023-01-25T10:58:30.524Z,102891.38
2023-01-25T11:00:57.414Z,102888.97
2023-01-25T11:03:23.986Z,102876.84
2023-01-25T11:05:57.829Z,102868.97
2023-01-25T11:08:30.225Z,102873.56
2023-01-25T11:10:56.829Z,102863.69
2023-01-25T11:13:29.927Z,102859.66
2023-01-25T11:16:04.887Z,102847.28
2023-01-25T11:18:33.990Z,102835.06
2023-01-25T11:21:03.411Z,102828.50
2023-01-25T11:23:32.147Z,102832.19
2023-01-25T11:26:18.801Z,102824.47
2023-01-25T11:28:46.308Z,102829.09
2023-01-25T11:31:14.517Z,102814.88
2023-01-25T11:33:42.160Z,102815.53
2023-01-25T11:36:20.067Z,102820.00
2023-01-25T11:39:00.305Z,102798.19
2023-01-25T11:41:45.809Z,102794.19
2023-01-25T11:44:32.598Z,102778.41
2023-01-25T11:47:18.867Z,102783.03
2023-01-25T11:49:58.517Z,102775.66
2023-01-25T11:52:43.646Z,102771.44
2023-01-25T11:55:23.451Z,102768.53
2023-01-25T11:57:52.859Z,102756.50
2023-01-25T12:00:19.374Z,102747.38
2023-01-25T12:02:49.242Z,102749.69
2023-01-25T12:05:21.928Z,102752.84
2023-01-25T12:08:00.783Z,102744.09
2023-01-25T12:10:40.764Z,102730.69
2023-01-25T12:13:25.922Z,102720.66
2023-01-25T12:16:15.361Z,102721.63
2023-01-25T12:18:45.026Z,102710.91
2023-01-25T12:21:31.542Z,102709.66
2023-01-25T12:24:16.359Z,102704.59
2023-01-25T12:26:43.053Z,102698.81
2023-01-25T12:29:09.612Z,102692.69
2023-01-25T12:31:41.689Z,102681.16
2023-01-25T12:34:15.095Z,102685.75
2023-01-25T12:36:45.998Z,102673.41
2023-01-25T12:39:12.446Z,102663.91
2023-01-25T12:41:38.976Z,102659.69
2023-01-25T12:44:17.451Z,102657.63
2023-01-25T12:46:43.772Z,102650.59
2023-01-25T12:49:24.105Z,102648.25
2023-01-25T12:51:51.879Z,102657.75
2023-01-25T12:54:24.535Z,102651.78
2023-01-25T12:57:09.797Z,102647.97
2023-01-25T12:59:43.601Z,102645.25
2023-01-25T13:02:36.710Z,102637.00
2023-01-25T13:05:14.551Z,102630.41
2023-01-25T13:07:45.076Z,102631.28
2023-01-25T13:10:18.573Z,102622.81
2023-01-25T13:12:52.461Z,102610.19
2023-01-25T13:15:38.555Z,102614.66
2023-01-25T13:18:23.712Z,102603.19
2023-01-25T13:20:51.990Z,102603.25
2023-01-25T13:23:31.642Z,102601.31
2023-01-25T13:26:16.835Z,102599.53
2023-01-25T13:28:45.260Z,102589.03
2023-01-25T13:31:46.400Z,102587.31
2023-01-25T13:34:42.279Z,102581.94
2023-01-25T13:37:19.268Z,102591.66
2023-01-25T13:39:45.861Z,102589.78
2023-01-25T13:42:12.164Z,102575.47
2023-01-25T13:44:42.820Z,102571.22
2023-01-25T13:47:20.758Z,102564.66
2023-01-25T13:50:00.452Z,102571.25
2023-01-25T13:52:27.643Z,102567.47
2023-01-25T13:54:55.579Z,102576.69
2023-01-25T13:57:29.455Z,102559.97
2023-01-25T14:00:10.709Z,102557.44
2023-01-25T14:02:38.762Z,102550.34
2023-01-25T14:05:07.859Z,102544.50
2023-01-25T14:07:37.129Z,102551.47
2023-01-25T14:10:15.988Z,102549.97
2023-01-25T14:12:43.700Z,102560.28
2023-01-25T14:15:11.545Z,102555.56
2023-01-25T14:17:38.023Z,102558.78
2023-01-25T14:20:17.310Z,102550.78
2023-01-25T14:22:47.313Z,102540.63
2023-01-25T14:25:15.329Z,102547.03
2023-01-25T14:27:44.181Z,102543.63
2023-01-25T14:30:21.705Z,102534.31
2023-01-25T14:32:49.508Z,102536.03
2023-01-25T14:35:42.164Z,102530.38
2023-01-25T14:38:24.873Z,102534.25
2023-01-25T14:40:53.453Z,102526.88
2023-01-25T14:43:20.128Z,102515.03
2023-01-25T14:45:46.595Z,102516.63
2023-01-25T14:48:32.154Z,102512.69
2023-01-25T14:51:03.525Z,102505.78
2023-01-25T14:53:31.128Z,102505.03
2023-01-25T14:55:57.781Z,102508.53
2023-01-25T14:58:24.998Z,102510.56
2023-01-25T15:00:54.568Z,102520.97
2023-01-25T15:03:22.524Z,102523.47
2023-01-25T15:05:49.132Z,102518.06
2023-01-25T15:08:25.780Z,102505.84
2023-01-25T15:10:52.615Z,102504.56
2023-01-25T15:13:21.233Z,102494.88
2023-01-25T15:15:52.632Z,102493.59
2023-01-25T15:18:38.193Z,102501.38
2023-01-25T15:21:04.624Z,102504.00
2023-01-25T15:23:31.179Z,102511.34
2023-01-25T15:25:59.155Z,102501.63
2023-01-25T15:28:28.102Z,102500.50
2023-01-25T15:30:58.277Z,102500.03
2023-01-25T15:33:26.580Z,102498.09
2023-01-25T15:35:53.615Z,102495.41
2023-01-25T15:38:21.803Z,102488.97
2023-01-25T15:40:48.713Z,102475.44
2023-01-25T15:43:16.607Z,102465.19
2023-01-25T15:45:45.568Z,102459.63
2023-01-25T15:48:17.501Z,102462.75
2023-01-25T15:50:44.457Z,102451.56
2023-01-25T15:53:15.267Z,102452.72
2023-01-25T15:55:42.764Z,102449.91
2023-01-25T15:58:12.340Z,102454.47
2023-01-25T16:00:39.017Z,102448.47
2023-01-25T16:03:07.244Z,102455.41
2023-01-25T16:05:33.780Z,102453.69
2023-01-25T16:08:00.165Z,102449.78
2023-01-25T16:10:26.810Z,102444.31
2023-01-25T16:12:53.235Z,102443.13
2023-01-25T16:15:19.671Z,102437.28
2023-01-25T16:17:46.371Z,102436.38
2023-01-25T16:20:18.257Z,102438.97
2023-01-25T16:22:45.096Z,102452.31
2023-01-25T16:25:11.778Z,102442.75
2023-01-25T16:27:38.633Z,102440.72
2023-01-25T16:30:06.238Z,102446.59
2023-01-25T16:32:32.793Z,102436.91
2023-01-25T16:35:00.754Z,102445.31
2023-01-25T16:37:27.674Z,102428.97
2023-01-25T16:39:54.180Z,102436.59
2023-01-25T16:42:22.694Z,102430.84
2023-01-25T16:44:50.515Z,102420.72
2023-01-25T16:47:17.143Z,102425.41
2023-01-25T16:49:43.695Z,102431.72
2023-01-25T16:52:11.346Z,102419.50
2023-01-25T16:54:38.603Z,102421.28
2023-01-25T16:57:14.966Z,102414.06
2023-01-25T16:59:46.287Z,102418.25
2023-01-25T17:02:13.133Z,102419.56
2023-01-25T17:04:39.762Z,102430.56
2023-01-25T17:07:08.456Z,102439.56
2023-01-25T17:09:35.491Z,102433.34
2023-01-25T17:12:02.134Z,102432.84
2023-01-25T17:14:28.822Z,102416.09
2023-01-25T17:16:55.706Z,102414.06
2023-01-25T17:19:23.550Z,102421.41
2023-01-25T17:21:51.378Z,102417.88
2023-01-25T17:24:19.933Z,102410.75
2023-01-25T17:26:46.737Z,102414.19
2023-01-25T17:29:13.964Z,102405.66
2023-01-25T17:31:42.327Z,102400.38
2023-01-25T17:34:11.608Z,102403.88
2023-01-25T17:36:38.249Z,102408.00
2023-01-25T17:39:06.207Z,102404.81
2023-01-25T17:41:33.217Z,102396.09
2023-01-25T17:43:59.723Z,102382.31
2023-01-25T17:46:29.600Z,102369.63
2023-01-25T17:48:57.177Z,102375.47
2023-01-25T17:51:24.956Z,102371.22
2023-01-25T17:53:52.319Z,102359.59
2023-01-25T17:56:22.087Z,102364.69
2023-01-25T17:58:48.515Z,102359.91
2023-01-25T18:01:17.978Z,102346.69
2023-01-25T18:03:45.224Z,102339.44
2023-01-25T18:06:14.331Z,102339.22
2023-01-25T18:08:44.902Z,102334.59
2023-01-25T18:11:12.683Z,102336.09
2023-01-25T18:13:42.701Z,102344.22
2023-01-25T18:16:10.217Z,102339.00
2023-01-25T18:18:37.247Z,102348.88
2023-01-25T18:21:07.791Z,102335.69
2023-01-25T18:23:34.525Z,102330.53
2023-01-25T18:26:01.186Z,102324.69
2023-01-25T18:28:28.378Z,102317.34
2023-01-25T18:31:00.851Z,102316.38
2023-01-25T18:33:27.714Z,102314.44
2023-01-25T18:35:55.116Z,102304.91
2023-01-25T18:38:21.684Z,102290.03
2023-01-25T18:40:49.527Z,102292.34
2023-01-25T18:43:17.069Z,102293.66
2023-01-25T18:45:44.923Z,102298.47
2023-01-25T18:48:14.617Z,102299.44
2023-01-25T18:50:41.761Z,102306.97
2023-01-25T18:53:11.221Z,102301.88
2023-01-25T18:55:38.410Z,102302.34
2023-01-25T18:58:05.694Z,102283.47
2023-01-25T19:00:32.689Z,102293.63
2023-01-25T19:02:59.354Z,102293.16
2023-01-25T19:05:25.837Z,102310.44
2023-01-25T19:07:52.585Z,102294.97
2023-01-25T19:10:19.439Z,102294.72
2023-01-25T19:12:46.179Z,102276.81
2023-01-25T19:15:12.765Z,102277.03
2023-01-25T19:17:39.145Z,102275.16
2023-01-25T19:20:05.809Z,102271.56
2023-01-25T19:22:32.487Z,102280.09
2023-01-25T19:25:00.147Z,102274.63
2023-01-25T19:27:28.695Z,102275.31
2023-01-25T19:29:55.168Z,102264.44
2023-01-25T19:32:21.841Z,102256.31
2023-01-25T19:34:48.225Z,102249.31
2023-01-25T19:37:14.715Z,102247.63
2023-01-25T19:39:41.135Z,102255.56
2023-01-25T19:42:07.980Z,102250.25
2023-01-25T19:44:35.406Z,102245.28
2023-01-25T19:47:03.175Z,102247.00
2023-01-25T19:49:29.959Z,102253.88
2023-01-25T19:51:56.645Z,102242.84
2023-01-25T19:54:24.321Z,102231.78
2023-01-25T19:56:51.402Z,102237.03
2023-01-25T19:59:19.230Z,102228.69
2023-01-25T20:01:46.991Z,102232.25
2023-01-25T20:04:15.251Z,102215.41
2023-01-25T20:06:42.154Z,102222.00
2023-01-25T20:09:11.386Z,102225.84
2023-01-25T20:11:38.429Z,102217.09
2023-01-25T20:14:07.668Z,102217.56
2023-01-25T20:16:35.488Z,102225.50
2023-01-25T20:19:03.542Z,102226.28
2023-01-25T20:21:31.416Z,102209.09
2023-01-25T20:24:00.432Z,102208.34
2023-01-25T20:26:28.766Z,102202.97
2023-01-25T20:28:56.343Z,102207.59
2023-01-25T20:31:23.131Z,102209.56
2023-01-25T20:33:51.371Z,102205.22
2023-01-25T20:36:18.232Z,102211.38
2023-01-25T20:38:44.775Z,102205.78
2023-01-25T20:41:15.773Z,102206.91
2023-01-25T20:43:49.316Z,102198.47
2023-01-25T20:46:16.424Z,102192.53
2023-01-25T20:48:43.250Z,102199.22
2023-01-25T20:51:10.552Z,102197.06
2023-01-25T20:53:37.291Z,102198.69
2023-01-25T20:56:04.015Z,102191.16
2023-01-25T20:58:30.842Z,102188.41
2023-01-25T21:00:57.730Z,102195.94
2023-01-25T21:03:24.917Z,102194.13
2023-01-25T21:05:52.580Z,102192.09
2023-01-25T21:08:19.452Z,102184.78
2023-01-25T21:10:50.036Z,102187.13
2023-01-25T21:13:16.744Z,102177.03
2023-01-25T21:15:43.186Z,102186.72
2023-01-25T21:18:09.727Z,102182.16
2023-01-25T21:20:36.509Z,102188.91
2023-01-25T21:23:03.741Z,102178.59
2023-01-25T21:25:30.512Z,102176.72
2023-01-25T21:27:57.044Z,102163.94
2023-01-25T21:30:24.043Z,102163.25
2023-01-25T21:32:51.667Z,102167.94
2023-01-25T21:35:18.460Z,102170.78
2023-01-25T21:37:46.379Z,102172.09
2023-01-25T21:40:13.248Z,102160.88
2023-01-25T21:42:39.617Z,102145.63
2023-01-25T21:45:24.874Z,102134.31
2023-01-25T21:47:51.241Z,102139.63
2023-01-25T21:50:36.414Z,102140.13
2023-01-25T21:53:02.786Z,102133.13
2023-01-25T21:55:29.336Z,102133.91
2023-01-25T21:57:55.666Z,102135.34
2023-01-25T22:00:22.077Z,102128.16
2023-01-25T22:02:50.575Z,102125.44
2023-01-25T22:05:17.033Z,102130.19
2023-01-25T22:07:43.466Z,102136.63
2023-01-25T22:10:10.568Z,102134.41
2023-01-25T22:12:37.122Z,102131.56
2023-01-25T22:15:03.582Z,102130.56
2023-01-25T22:17:29.902Z,102127.50
2023-01-25T22:19:56.232Z,102121.19
2023-01-25T22:22:22.585Z,102112.34
2023-01-25T22:24:48.892Z,102114.84
2023-01-25T22:27:18.355Z,102117.50
2023-01-25T22:29:44.712Z,102110.00
2023-01-25T22:32:11.032Z,102107.72
2023-01-25T22:34:38.051Z,102111.53
2023-01-25T22:37:04.394Z,102110.53
2023-01-25T22:39:30.812Z,102104.41
2023-01-25T22:41:57.164Z,102101.22
2023-01-25T22:44:23.530Z,102103.13
2023-01-25T22:46:50.686Z,102106.59
2023-01-25T22:49:17.275Z,102109.13
2023-01-25T22:51:43.660Z,102105.63
2023-01-25T22:54:10.108Z,102104.00
2023-01-25T22:56:37.447Z,102112.03
2023-01-25T22:59:04.330Z,102119.03
2023-01-25T23:01:34.568Z,102100.75
2023-01-25T23:04:01.405Z,102102.69
2023-01-25T23:06:29.124Z,102102.19
2023-01-25T23:09:03.299Z,102098.19
2023-01-25T23:11:32.507Z,102088.81
2023-01-25T23:14:18.243Z,102087.81
2023-01-25T23:16:44.633Z,102095.47
2023-01-25T23:19:11.466Z,102091.69
2023-01-25T23:21:37.879Z,102077.81
2023-01-25T23:24:04.559Z,102082.47
2023-01-25T23:26:37.492Z,102084.91
2023-01-25T23:29:05.688Z,102078.03
2023-01-25T23:31:32.908Z,102072.84
2023-01-25T23:34:02.780Z,102066.81
2023-01-25T23:36:31.250Z,102058.56
2023-01-25T23:38:59.321Z,102060.91
2023-01-25T23:41:27.266Z,102070.19
2023-01-25T23:43:55.285Z,102066.00
2023-01-25T23:46:22.814Z,102058.16
2023-01-25T23:48:49.732Z,102055.88
2023-01-25T23:51:17.583Z,102045.88
2023-01-25T23:53:44.347Z,102049.19
2023-01-25T23:56:13.201Z,102051.50
2023-01-25T23:58:39.896Z,102041.88
